LiveATC.Net - Listen to live air traffic control over the Internet! Contact LiveATC.net for advertising information


ICAO: KHBI  IATA: HBI   Airport: Asheboro Regional Airport
City: Asheboro   State/Province: North Carolina
Country: United States   Continent: North America
KHBI METAR Weather: KHBI 280915Z AUTO 00000KT 10SM CLR M02/M06 A3033 RMK AO2 T10191058
KHBI Flight Activity (FlightAware)
KHBI Airport Info   (AirNav) (iFlightPlanner)
KHBI CTAF/Unicom
Feed Status: DOWN
Last heard on: 2014-06-22 19:58:03 (158 days 13 hours 46 minutes ago)
KHBI CTAF/Unicom Audio Archives
FacilityFrequency
Asheboro CTAF/UNICOM122.800

Feed sponsored by: North Carolina Aviation Hall of Fame Museum


NOTICE

Unauthorized use prohibited. See LiveATC.net Terms of Service


Find LiveATC Audio Streams


Airport/ARTCC Code

Frequency
(e.g., 124.400, 128.75)
Site-wide search

Browse LiveATC Feeds
LiveATC Coverage Map
Top 50 LiveATC Feeds
Bad Weather Areas

LiveATC FAQ
Offer a LiveATC Feed
Contact LiveATC.net
Press Inquiries

LiveATC on iPhone
LiveATC on Android

LiveATC Mobile
(Mobile browser)

ATC Audio Archives
Interesting Recordings

LiveATC Forums


Home Page
About LiveATC.net
Make a Donation
LiveATC Bookstore

Terms of Use
Privacy Policy

ATC/Radar Sites
U.S. ARTCC Freqs
Canadian Air Freqs

AIRMETs/SIGMETs

FAA Airport Status
Nat'l Airspace Status
Arrival Demand Charts


Server Software By:
Icecast.org
Liquidsoap

Please make a donation to help us keep growing!